createdAt,value
2018-07-05T00:01:01.328Z,85.19
2018-07-05T00:03:42.428Z,85.51
2018-07-05T00:06:29.774Z,85.71
2018-07-05T00:09:16.942Z,85.02
2018-07-05T00:12:04.165Z,84.64
2018-07-05T00:14:45.177Z,85.44
2018-07-05T00:17:32.400Z,85.65
2018-07-05T00:20:19.618Z,85.34
2018-07-05T00:23:07.144Z,84.25
2018-07-05T00:25:55.338Z,84.46
2018-07-05T00:28:42.507Z,84.93
2018-07-05T00:31:30.543Z,85.19
2018-07-05T00:34:17.750Z,85.22
2018-07-05T00:37:04.994Z,85.96
2018-07-05T00:39:51.891Z,85.46
2018-07-05T00:42:39.717Z,85.81
2018-07-05T00:45:26.740Z,86.35
2018-07-05T00:48:14.126Z,86.64
2018-07-05T00:51:00.940Z,86.44
2018-07-05T00:53:42.098Z,86.03
2018-07-05T00:56:28.975Z,86.06
2018-07-05T00:59:16.210Z,85.79
2018-07-05T01:02:03.515Z,86.42
2018-07-05T01:04:50.551Z,86.88
2018-07-05T01:07:37.858Z,86.68
2018-07-05T01:10:24.895Z,87.22
2018-07-05T01:13:12.789Z,86.75
2018-07-05T01:15:59.801Z,86.84
2018-07-05T01:18:46.877Z,86.47
2018-07-05T01:21:34.028Z,86.10
2018-07-05T01:24:21.327Z,86.16
2018-07-05T01:27:08.395Z,86.21
2018-07-05T01:29:56.056Z,87.13
2018-07-05T01:32:43.860Z,87.15
2018-07-05T01:35:30.920Z,87.35
2018-07-05T01:38:18.171Z,87.70
2018-07-05T01:41:05.156Z,87.58
2018-07-05T01:43:53.203Z,87.94
2018-07-05T01:46:41.257Z,88.51
2018-07-05T01:49:23.090Z,88.54
2018-07-05T01:52:13.997Z,88.43
2018-07-05T01:55:00.684Z,88.40
2018-07-05T01:57:47.619Z,88.72
2018-07-05T02:00:35.636Z,88.45
2018-07-05T02:03:22.872Z,89.14
2018-07-05T02:06:10.198Z,88.97
2018-07-05T02:08:57.606Z,88.59
2018-07-05T02:11:44.684Z,88.67
2018-07-05T02:14:32.791Z,88.92
2018-07-05T02:17:19.896Z,89.71
2018-07-05T02:20:07.212Z,89.25
2018-07-05T02:22:54.998Z,89.19
2018-07-05T02:25:42.269Z,89.54
2018-07-05T02:28:29.573Z,89.63
2018-07-05T02:31:16.798Z,89.46
2018-07-05T02:34:08.950Z,90.02
2018-07-05T02:36:56.100Z,90.19
2018-07-05T02:39:48.292Z,90.69
2018-07-05T02:42:35.510Z,90.56
2018-07-05T02:45:22.630Z,90.04
2018-07-05T02:48:10.299Z,89.32
2018-07-05T02:50:57.388Z,89.90
2018-07-05T02:53:44.596Z,89.24
2018-07-05T02:56:31.815Z,90.76
2018-07-05T02:59:19.142Z,90.97
2018-07-05T03:02:06.201Z,91.01
2018-07-05T03:04:53.375Z,90.82
2018-07-05T03:07:40.508Z,90.80
2018-07-05T03:10:27.472Z,90.62
2018-07-05T03:13:14.569Z,89.88
2018-07-05T03:16:01.529Z,89.94
2018-07-05T03:18:48.833Z,89.74
2018-07-05T03:21:35.945Z,89.78
2018-07-05T03:24:22.911Z,89.44
2018-07-05T03:27:10.214Z,89.94
2018-07-05T03:29:57.518Z,89.25
2018-07-05T03:32:45.155Z,89.25
2018-07-05T03:35:32.530Z,89.06
2018-07-05T03:38:19.698Z,88.56
2018-07-05T03:41:07.114Z,88.02
2018-07-05T03:43:54.106Z,87.44
2018-07-05T03:46:41.251Z,88.11
2018-07-05T03:49:28.502Z,87.81
2018-07-05T03:52:16.680Z,87.43
2018-07-05T03:55:03.728Z,86.67
2018-07-05T03:57:50.953Z,87.03
2018-07-05T04:00:38.183Z,86.56
2018-07-05T04:03:25.353Z,86.22
2018-07-05T04:06:12.417Z,86.56
2018-07-05T04:08:59.434Z,85.74
2018-07-05T04:11:47.292Z,85.92
2018-07-05T04:14:34.376Z,84.79
2018-07-05T04:17:21.356Z,85.23
2018-07-05T04:20:08.300Z,85.53
2018-07-05T04:22:55.436Z,85.42
2018-07-05T04:25:42.717Z,85.50
2018-07-05T04:28:30.321Z,85.09
2018-07-05T04:31:17.502Z,84.71
2018-07-05T04:34:04.733Z,84.42
2018-07-05T04:36:51.841Z,84.03
2018-07-05T04:39:38.953Z,83.69
2018-07-05T04:42:25.978Z,83.47
2018-07-05T04:45:13.347Z,83.30
2018-07-05T04:48:01.491Z,83.45
2018-07-05T04:50:48.726Z,83.12
2018-07-05T04:53:30.451Z,82.71
2018-07-05T04:56:17.622Z,82.59
2018-07-05T04:59:04.855Z,82.88
2018-07-05T05:01:51.990Z,82.25
2018-07-05T05:04:39.221Z,82.27
2018-07-05T05:07:26.829Z,80.69
2018-07-05T05:10:13.945Z,81.50
2018-07-05T05:13:01.305Z,82.81
2018-07-05T05:15:48.428Z,82.05
2018-07-05T05:18:35.842Z,81.31
2018-07-05T05:21:23.164Z,80.83
2018-07-05T05:24:10.568Z,80.75
2018-07-05T05:26:58.842Z,80.20
2018-07-05T05:29:45.819Z,80.44
2018-07-05T05:32:33.068Z,80.15
2018-07-05T05:35:20.089Z,80.08
2018-07-05T05:38:07.250Z,78.66
2018-07-05T05:40:54.360Z,79.22
2018-07-05T05:43:41.814Z,79.96
2018-07-05T05:46:29.112Z,79.96
2018-07-05T05:49:16.103Z,79.91
2018-07-05T05:52:03.487Z,82.42
2018-07-05T05:54:51.281Z,84.51
2018-07-05T05:57:39.014Z,86.13
2018-07-05T06:00:26.496Z,85.51
2018-07-05T06:03:14.309Z,84.56
2018-07-05T06:06:02.642Z,83.59
2018-07-05T06:08:49.897Z,81.80
2018-07-05T06:11:37.060Z,79.31
2018-07-05T06:14:25.016Z,77.30
2018-07-05T06:17:12.024Z,75.73
2018-07-05T06:19:59.776Z,74.72
2018-07-05T06:22:46.981Z,72.09
2018-07-05T06:25:28.025Z,70.39
2018-07-05T06:28:15.096Z,66.14
2018-07-05T06:31:02.153Z,63.08
2018-07-05T06:33:49.667Z,60.42
2018-07-05T06:36:37.025Z,60.78
2018-07-05T06:39:24.808Z,59.16
2018-07-05T06:42:12.081Z,58.71
2018-07-05T06:44:59.461Z,56.00
2018-07-05T06:47:46.376Z,54.47
2018-07-05T06:50:34.014Z,52.56
2018-07-05T06:53:21.839Z,51.47
2018-07-05T06:56:09.277Z,50.37
2018-07-05T06:58:56.967Z,49.55
2018-07-05T07:01:44.092Z,50.66
2018-07-05T07:04:31.336Z,49.26
2018-07-05T07:07:18.441Z,48.43
2018-07-05T07:10:05.370Z,48.48
2018-07-05T07:12:53.217Z,48.38
2018-07-05T07:15:40.480Z,51.38
2018-07-05T07:18:28.300Z,51.81
2018-07-05T07:21:15.472Z,49.21
2018-07-05T07:24:02.759Z,53.50
2018-07-05T07:26:44.077Z,54.33
2018-07-05T07:29:31.925Z,49.48
2018-07-05T07:32:20.097Z,55.94
2018-07-05T07:35:07.433Z,51.72
2018-07-05T07:37:55.141Z,48.28
2018-07-05T07:40:42.061Z,49.90
2018-07-05T07:43:10.944Z,47.70
2018-07-05T07:45:39.784Z,49.49
2018-07-05T07:48:08.971Z,48.00
2018-07-05T07:50:38.126Z,44.66
2018-07-05T07:53:07.372Z,48.38
2018-07-05T07:55:36.255Z,50.03
2018-07-05T07:58:04.999Z,51.70
2018-07-05T08:00:34.633Z,46.26
2018-07-05T08:03:03.982Z,44.49
2018-07-05T08:05:33.392Z,45.69
2018-07-05T08:08:01.802Z,48.80
2018-07-05T08:10:30.813Z,49.05
2018-07-05T08:13:00.298Z,47.63
2018-07-05T08:15:29.605Z,45.98
2018-07-05T08:17:58.291Z,41.78
2018-07-05T08:20:26.993Z,43.29
2018-07-05T08:22:55.911Z,46.10
2018-07-05T08:25:25.153Z,44.38
2018-07-05T08:27:55.736Z,41.67
2018-07-05T08:30:24.906Z,44.49
2018-07-05T08:32:54.857Z,43.56
2018-07-05T08:35:24.113Z,39.85
2018-07-05T08:37:52.687Z,39.74
2018-07-05T08:40:21.875Z,43.00
2018-07-05T08:42:50.979Z,43.99
2018-07-05T08:45:20.636Z,39.03
2018-07-05T08:47:50.382Z,41.05
2018-07-05T08:50:20.078Z,39.30
2018-07-05T08:52:50.050Z,40.67
2018-07-05T08:55:19.373Z,39.71
2018-07-05T08:57:48.459Z,37.95
2018-07-05T09:00:17.739Z,40.87
2018-07-05T09:02:47.652Z,46.95
2018-07-05T09:05:17.075Z,46.08
2018-07-05T09:07:45.957Z,41.94
2018-07-05T09:10:15.182Z,42.87
2018-07-05T09:12:46.398Z,41.16
2018-07-05T09:15:16.339Z,39.85
2018-07-05T09:17:45.376Z,45.29
2018-07-05T09:20:14.213Z,44.35
2018-07-05T09:22:43.563Z,42.19
2018-07-05T09:25:13.848Z,43.10
2018-07-05T09:27:43.839Z,39.34
2018-07-05T09:30:12.776Z,39.02
2018-07-05T09:32:41.776Z,38.01
2018-07-05T09:35:11.540Z,36.15
2018-07-05T09:37:40.903Z,40.20
2018-07-05T09:40:12.725Z,39.71
2018-07-05T09:42:41.912Z,40.45
2018-07-05T09:45:11.504Z,41.50
2018-07-05T09:47:40.683Z,40.54
2018-07-05T09:50:11.209Z,35.52
2018-07-05T09:52:42.867Z,32.56
2018-07-05T09:55:12.646Z,38.29
2018-07-05T09:57:41.244Z,41.54
2018-07-05T10:00:12.035Z,40.98
2018-07-05T10:02:41.923Z,39.24
2018-07-05T10:05:11.644Z,40.71
2018-07-05T10:07:44.514Z,39.46
2018-07-05T10:10:15.318Z,38.81
2018-07-05T10:12:45.892Z,35.98
2018-07-05T10:15:15.188Z,35.58
2018-07-05T10:17:44.124Z,40.09
2018-07-05T10:20:13.047Z,39.02
2018-07-05T10:22:43.183Z,38.58
2018-07-05T10:25:11.801Z,38.92
2018-07-05T10:27:51.228Z,36.25
2018-07-05T10:30:39.706Z,39.65
2018-07-05T10:33:27.204Z,42.32
2018-07-05T10:35:56.269Z,42.71
2018-07-05T10:38:24.939Z,42.66
2018-07-05T10:41:13.283Z,41.72
2018-07-05T10:44:02.785Z,38.32
2018-07-05T10:46:50.979Z,36.92
2018-07-05T10:49:38.646Z,41.76
2018-07-05T10:52:27.888Z,40.05
2018-07-05T10:55:09.768Z,40.80
2018-07-05T10:57:57.214Z,39.91
2018-07-05T11:00:44.804Z,41.50
2018-07-05T11:03:32.763Z,40.46
2018-07-05T11:06:22.169Z,38.29
2018-07-05T11:09:10.235Z,36.65
2018-07-05T11:11:57.721Z,36.49
2018-07-05T11:14:45.446Z,34.89
2018-07-05T11:17:32.928Z,36.12
2018-07-05T11:20:20.496Z,36.40
2018-07-05T11:23:09.126Z,36.13
2018-07-05T11:25:56.690Z,36.27
2018-07-05T11:28:44.606Z,39.31
2018-07-05T11:31:32.139Z,39.33
2018-07-05T11:34:19.381Z,37.39
2018-07-05T11:37:06.533Z,38.40
2018-07-05T11:39:53.695Z,35.97
2018-07-05T11:42:42.069Z,39.16
2018-07-05T11:45:29.959Z,37.69
2018-07-05T11:48:18.324Z,36.20
2018-07-05T11:51:05.647Z,37.90
2018-07-05T11:53:54.179Z,38.61
2018-07-05T11:56:42.578Z,39.93
2018-07-05T11:59:31.095Z,39.34
2018-07-05T12:02:20.424Z,37.60
2018-07-05T12:05:09.253Z,38.20
2018-07-05T12:07:57.315Z,41.09
2018-07-05T12:10:47.066Z,38.79
2018-07-05T12:13:36.187Z,38.95
2018-07-05T12:16:25.295Z,39.80
2018-07-05T12:19:14.095Z,39.96
2018-07-05T12:22:02.475Z,38.87
2018-07-05T12:24:49.983Z,40.45
2018-07-05T12:27:37.885Z,38.15
2018-07-05T12:30:26.300Z,38.46
2018-07-05T12:33:14.474Z,37.66
2018-07-05T12:36:02.556Z,40.41
2018-07-05T12:38:50.671Z,41.27
2018-07-05T12:41:38.984Z,40.58
2018-07-05T12:44:26.922Z,39.87
2018-07-05T12:47:15.063Z,41.39
2018-07-05T12:49:56.728Z,41.23
2018-07-05T12:52:44.295Z,38.62
2018-07-05T12:55:32.311Z,40.83
2018-07-05T12:58:20.540Z,42.70
2018-07-05T13:01:08.515Z,43.81
2018-07-05T13:03:56.770Z,43.20
2018-07-05T13:06:44.896Z,42.56
2018-07-05T13:09:33.991Z,43.12
2018-07-05T13:12:22.005Z,42.39
2018-07-05T13:15:10.959Z,41.61
2018-07-05T13:17:58.956Z,42.13
2018-07-05T13:20:47.455Z,43.58
2018-07-05T13:23:35.399Z,41.86
2018-07-05T13:26:23.752Z,41.75
2018-07-05T13:29:12.643Z,40.50
2018-07-05T13:31:59.931Z,41.14
2018-07-05T13:34:47.969Z,42.25
2018-07-05T13:37:36.315Z,41.17
2018-07-05T13:40:25.120Z,41.25
2018-07-05T13:43:13.262Z,43.72
2018-07-05T13:46:00.942Z,43.46
2018-07-05T13:48:50.199Z,44.17
2018-07-05T13:51:38.872Z,45.02
2018-07-05T13:54:27.670Z,44.29
2018-07-05T13:57:15.487Z,44.92
2018-07-05T14:00:05.691Z,44.88
2018-07-05T14:02:54.111Z,45.99
2018-07-05T14:05:42.221Z,46.42
2018-07-05T14:08:30.369Z,48.21
2018-07-05T14:11:18.712Z,46.97
2018-07-05T14:14:06.355Z,47.48
2018-07-05T14:16:55.275Z,48.04
2018-07-05T14:19:43.999Z,45.00
2018-07-05T14:22:26.257Z,46.09
2018-07-05T14:25:13.881Z,46.77
2018-07-05T14:28:01.687Z,48.29
2018-07-05T14:30:49.774Z,46.13
2018-07-05T14:33:38.506Z,46.89
2018-07-05T14:36:25.584Z,48.26
2018-07-05T14:39:14.015Z,45.88
2018-07-05T14:41:56.610Z,45.17
2018-07-05T14:44:44.657Z,46.02
2018-07-05T14:47:32.684Z,45.47
2018-07-05T14:50:20.274Z,45.03
2018-07-05T14:53:09.071Z,46.58
2018-07-05T14:55:56.656Z,45.95
2018-07-05T14:58:45.039Z,46.93
2018-07-05T15:01:32.265Z,47.49
2018-07-05T15:04:20.145Z,47.59
2018-07-05T15:07:07.297Z,47.02
2018-07-05T15:09:54.534Z,46.63
2018-07-05T15:12:42.264Z,48.09
2018-07-05T15:15:29.635Z,49.19
2018-07-05T15:18:11.596Z,49.31
2018-07-05T15:20:58.961Z,49.39
2018-07-05T15:23:46.673Z,48.81
2018-07-05T15:26:34.451Z,48.25
2018-07-05T15:29:21.578Z,48.03
2018-07-05T15:32:08.863Z,48.07
2018-07-05T15:34:50.191Z,48.22
2018-07-05T15:37:37.312Z,48.15
2018-07-05T15:40:24.933Z,48.29
2018-07-05T15:43:12.848Z,49.07
2018-07-05T15:46:00.109Z,47.55
2018-07-05T15:48:47.316Z,46.12
2018-07-05T15:51:35.738Z,47.01
2018-07-05T15:54:16.835Z,46.60
2018-07-05T15:57:04.044Z,48.55
2018-07-05T15:59:51.159Z,47.96
2018-07-05T16:02:38.509Z,46.91
2018-07-05T16:05:25.700Z,48.10
2018-07-05T16:08:13.630Z,48.30
2018-07-05T16:11:00.881Z,49.14
2018-07-05T16:13:48.142Z,49.10
2018-07-05T16:16:35.331Z,48.27
2018-07-05T16:19:22.433Z,47.73
2018-07-05T16:22:09.715Z,47.96
2018-07-05T16:24:57.164Z,47.90
2018-07-05T16:27:38.483Z,47.88
2018-07-05T16:30:26.210Z,48.53
2018-07-05T16:33:13.714Z,48.99
2018-07-05T16:36:00.934Z,48.21
2018-07-05T16:38:47.951Z,49.25
2018-07-05T16:41:34.844Z,50.44
2018-07-05T16:44:22.074Z,50.32
2018-07-05T16:47:09.202Z,49.89
2018-07-05T16:49:56.220Z,49.74
2018-07-05T16:52:43.737Z,50.49
2018-07-05T16:55:30.676Z,50.37
2018-07-05T16:58:17.840Z,50.78
2018-07-05T17:01:04.722Z,51.30
2018-07-05T17:03:52.725Z,51.38
2018-07-05T17:06:40.599Z,51.59
2018-07-05T17:09:27.660Z,50.59
2018-07-05T17:12:14.983Z,51.99
2018-07-05T17:15:01.908Z,51.02
2018-07-05T17:17:49.063Z,52.59
2018-07-05T17:20:36.539Z,53.13
2018-07-05T17:23:23.602Z,53.13
2018-07-05T17:26:11.166Z,52.72
2018-07-05T17:28:59.817Z,52.84
2018-07-05T17:31:47.378Z,53.07
2018-07-05T17:34:28.138Z,53.58
2018-07-05T17:37:15.391Z,54.38
2018-07-05T17:40:02.499Z,54.31
2018-07-05T17:42:49.763Z,55.32
2018-07-05T17:45:38.162Z,55.82
2018-07-05T17:48:25.211Z,56.56
2018-07-05T17:51:13.066Z,56.30
2018-07-05T17:54:00.015Z,56.47
2018-07-05T17:56:47.477Z,56.20
2018-07-05T17:59:35.177Z,56.84
2018-07-05T18:02:16.493Z,56.23
2018-07-05T18:05:03.603Z,57.46
2018-07-05T18:07:50.893Z,57.77
2018-07-05T18:10:32.331Z,58.19
2018-07-05T18:13:19.260Z,57.71
2018-07-05T18:16:07.053Z,57.92
2018-07-05T18:18:54.488Z,58.08
2018-07-05T18:21:42.025Z,58.23
2018-07-05T18:24:29.350Z,58.30
2018-07-05T18:27:17.075Z,58.07
2018-07-05T18:30:04.562Z,58.53
2018-07-05T18:32:51.699Z,57.93
2018-07-05T18:35:39.230Z,58.16
2018-07-05T18:38:26.224Z,59.00
2018-07-05T18:41:13.992Z,59.16
2018-07-05T18:44:01.287Z,59.75
2018-07-05T18:46:48.584Z,59.39
2018-07-05T18:49:36.664Z,59.86
2018-07-05T18:52:24.802Z,59.93
2018-07-05T18:55:12.538Z,60.38
2018-07-05T18:58:00.154Z,61.08
2018-07-05T19:00:48.169Z,61.65
2018-07-05T19:03:36.369Z,62.09
2018-07-05T19:06:26.515Z,61.76
2018-07-05T19:09:14.772Z,62.42
2018-07-05T19:12:02.112Z,61.80
2018-07-05T19:14:50.113Z,62.43
2018-07-05T19:17:39.513Z,62.43
2018-07-05T19:20:28.836Z,62.77
2018-07-05T19:23:17.784Z,63.02
2018-07-05T19:26:04.856Z,62.97
2018-07-05T19:28:53.950Z,63.34
2018-07-05T19:31:35.847Z,63.41
2018-07-05T19:34:22.916Z,63.45
2018-07-05T19:37:20.060Z,63.93
2018-07-05T19:40:07.902Z,64.35
2018-07-05T19:42:55.813Z,65.48
2018-07-05T19:45:37.764Z,65.94
2018-07-05T19:48:20.411Z,66.13
2018-07-05T19:51:02.287Z,66.62
2018-07-05T19:53:49.836Z,66.83
2018-07-05T19:56:37.759Z,67.05
2018-07-05T19:59:26.074Z,68.05
2018-07-05T20:02:15.987Z,68.15
2018-07-05T20:04:58.366Z,68.53
2018-07-05T20:07:46.486Z,68.46
2018-07-05T20:10:34.810Z,68.98
2018-07-05T20:13:24.717Z,69.25
2018-07-05T20:16:13.302Z,68.77
2018-07-05T20:19:01.765Z,69.19
2018-07-05T20:21:50.209Z,68.70
2018-07-05T20:24:40.113Z,69.14
2018-07-05T20:27:28.143Z,68.86
2018-07-05T20:30:16.253Z,68.79
2018-07-05T20:33:03.867Z,69.66
2018-07-05T20:35:53.323Z,70.06
2018-07-05T20:38:41.408Z,71.03
2018-07-05T20:41:30.288Z,70.83
2018-07-05T20:44:12.621Z,70.27
2018-07-05T20:47:00.608Z,71.58
2018-07-05T20:49:49.024Z,71.06
2018-07-05T20:52:37.703Z,71.31
2018-07-05T20:55:25.354Z,72.43
2018-07-05T20:58:06.913Z,72.84
2018-07-05T21:00:54.124Z,73.29
2018-07-05T21:03:45.558Z,72.74
2018-07-05T21:06:32.625Z,72.58
2018-07-05T21:09:20.996Z,73.70
2018-07-05T21:12:07.991Z,74.32
2018-07-05T21:14:55.781Z,74.65
2018-07-05T21:17:43.050Z,74.79
2018-07-05T21:20:30.286Z,74.85
2018-07-05T21:23:17.529Z,74.83
2018-07-05T21:26:04.627Z,74.68
2018-07-05T21:28:52.418Z,75.55
2018-07-05T21:31:39.467Z,75.46
2018-07-05T21:34:26.650Z,76.01
2018-07-05T21:37:13.704Z,75.90
2018-07-05T21:40:00.816Z,76.91
2018-07-05T21:42:48.500Z,76.93
2018-07-05T21:45:35.664Z,78.12
2018-07-05T21:48:23.485Z,78.33
2018-07-05T21:51:10.631Z,78.98
2018-07-05T21:53:57.809Z,79.12
2018-07-05T21:56:44.969Z,78.39
2018-07-05T21:59:32.062Z,79.25
2018-07-05T22:02:19.267Z,80.07
2018-07-05T22:05:10.301Z,79.81
2018-07-05T22:07:57.629Z,80.44
2018-07-05T22:10:44.851Z,80.30
2018-07-05T22:13:32.786Z,80.62
2018-07-05T22:16:19.869Z,80.18
2018-07-05T22:19:12.517Z,80.65
2018-07-05T22:21:58.741Z,81.04
2018-07-05T22:24:50.664Z,81.23
2018-07-05T22:27:42.894Z,81.51
2018-07-05T22:31:35.228Z,81.24
2018-07-05T22:34:17.071Z,80.50
2018-07-05T22:37:04.061Z,81.60
2018-07-05T22:39:51.985Z,81.79
2018-07-05T22:42:39.621Z,81.97
2018-07-05T22:45:27.131Z,81.91
2018-07-05T22:48:14.497Z,82.52
2018-07-05T22:51:01.972Z,82.75
2018-07-05T22:53:49.118Z,82.27
2018-07-05T22:56:36.134Z,82.47
2018-07-05T22:59:23.116Z,82.69
2018-07-05T23:02:10.216Z,82.87
2018-07-05T23:04:57.509Z,81.92
2018-07-05T23:07:44.650Z,81.34
2018-07-05T23:10:31.717Z,81.30
2018-07-05T23:13:19.988Z,82.30
2018-07-05T23:16:07.757Z,82.76
2018-07-05T23:18:54.649Z,82.96
2018-07-05T23:21:42.504Z,83.20
2018-07-05T23:24:29.412Z,83.55
2018-07-05T23:27:16.584Z,83.93
2018-07-05T23:30:03.598Z,83.74
2018-07-05T23:32:51.128Z,83.95
2018-07-05T23:35:38.028Z,83.44
2018-07-05T23:38:25.551Z,83.91
2018-07-05T23:41:06.442Z,83.87
2018-07-05T23:43:54.059Z,83.82
2018-07-05T23:46:40.997Z,83.75
2018-07-05T23:49:28.192Z,83.80
2018-07-05T23:52:15.112Z,83.94
2018-07-05T23:55:02.143Z,83.51
2018-07-05T23:57:49.134Z,83.76
